PUQ weather

Pdte. Carlos IbaƱez del Campo Airport
Punta Arenas, Magallanes Region, Chile

Public forecast

Using degrees Celsius for public forecast. Weather courtesy of forecast.io.

METAR (pilot weather report)

Retrieved 2019/08/23 01:00 UTC (60 minutes ago):

SCCI 230100Z VRB02KT 9999 BKN040 02/01 Q1019 NOSIG

TAF (pilot weather forecast)

Forecast is more than 12 hours old.

Retrieved 2019/08/22 00:00 UTC (1 day ago):

TAF SCCI 222253Z 2300/2400 30006KT 9999 SCT040 TN02/2302Z TX07/2318Z PROB40 TEMPO 2300/2302 VRB03KT SCT045 BECMG 2302/2304 04005KT BECMG 2306/2308 06015KT TEMPO 2312/2318 07015G25KT